sensor_id;sensor_type;location;lat;lon;timestamp;pressure;altitude;pressure_sealevel;temperature;humidity
77011;BME280;65945;53.148;17.956;2023-02-28T00:00:14;102722.23;;;-5.21;75.75
77011;BME280;65945;53.148;17.956;2023-02-28T00:03:01;102725.20;;;-5.21;76.04
77011;BME280;65945;53.148;17.956;2023-02-28T00:05:28;102726.56;;;-5.21;76.04
77011;BME280;65945;53.148;17.956;2023-02-28T00:07:55;102727.05;;;-5.22;76.01
77011;BME280;65945;53.148;17.956;2023-02-28T00:10:25;102726.27;;;-5.22;75.99
77011;BME280;65945;53.148;17.956;2023-02-28T00:12:54;102727.61;;;-5.21;76.00
77011;BME280;65945;53.148;17.956;2023-02-28T00:15:23;102726.58;;;-5.18;76.12
77011;BME280;65945;53.148;17.956;2023-02-28T00:17:50;102727.27;;;-5.21;76.15
77011;BME280;65945;53.148;17.956;2023-02-28T00:20:18;102723.02;;;-5.24;76.91
77011;BME280;65945;53.148;17.956;2023-02-28T00:22:47;102723.73;;;-5.25;76.54
77011;BME280;65945;53.148;17.956;2023-02-28T00:25:17;102724.23;;;-5.27;76.26
77011;BME280;65945;53.148;17.956;2023-02-28T00:27:44;102725.52;;;-5.26;76.57
77011;BME280;65945;53.148;17.956;2023-02-28T00:30:14;102727.52;;;-5.25;76.51
77011;BME280;65945;53.148;17.956;2023-02-28T00:32:41;102726.38;;;-5.27;76.60
77011;BME280;65945;53.148;17.956;2023-02-28T00:35:09;102721.30;;;-5.31;76.48
77011;BME280;65945;53.148;17.956;2023-02-28T00:37:37;102722.91;;;-5.34;76.45
77011;BME280;65945;53.148;17.956;2023-02-28T00:40:06;102724.52;;;-5.34;76.31
77011;BME280;65945;53.148;17.956;2023-02-28T00:42:34;102722.93;;;-5.35;76.64
77011;BME280;65945;53.148;17.956;2023-02-28T00:45:02;102723.61;;;-5.35;76.60
77011;BME280;65945;53.148;17.956;2023-02-28T00:47:31;102722.79;;;-5.34;76.55
77011;BME280;65945;53.148;17.956;2023-02-28T00:49:58;102724.41;;;-5.31;76.61
77011;BME280;65945;53.148;17.956;2023-02-28T00:52:24;102726.66;;;-5.28;76.61
77011;BME280;65945;53.148;17.956;2023-02-28T00:54:51;102725.55;;;-5.27;76.53
77011;BME280;65945;53.148;17.956;2023-02-28T00:57:17;102725.20;;;-5.31;76.62
77011;BME280;65945;53.148;17.956;2023-02-28T00:59:44;102729.23;;;-5.36;76.96
77011;BME280;65945;53.148;17.956;2023-02-28T01:02:11;102726.98;;;-5.40;77.02
77011;BME280;65945;53.148;17.956;2023-02-28T01:04:37;102726.17;;;-5.43;77.06
77011;BME280;65945;53.148;17.956;2023-02-28T01:07:04;102729.05;;;-5.44;76.72
77011;BME280;65945;53.148;17.956;2023-02-28T01:09:30;102727.52;;;-5.44;76.63
77011;BME280;65945;53.148;17.956;2023-02-28T01:11:58;102731.02;;;-5.42;76.84
77011;BME280;65945;53.148;17.956;2023-02-28T01:14:25;102731.47;;;-5.40;76.80
77011;BME280;65945;53.148;17.956;2023-02-28T01:16:51;102733.75;;;-5.40;76.62
77011;BME280;65945;53.148;17.956;2023-02-28T01:19:18;102733.98;;;-5.42;76.72
77011;BME280;65945;53.148;17.956;2023-02-28T01:21:44;102734.54;;;-5.42;76.65
77011;BME280;65945;53.148;17.956;2023-02-28T01:24:13;102733.14;;;-5.42;76.66
77011;BME280;65945;53.148;17.956;2023-02-28T01:26:39;102736.76;;;-5.42;76.83
77011;BME280;65945;53.148;17.956;2023-02-28T01:29:07;102734.67;;;-5.40;76.87
77011;BME280;65945;53.148;17.956;2023-02-28T01:31:34;102730.10;;;-5.39;77.01
77011;BME280;65945;53.148;17.956;2023-02-28T01:34:01;102723.85;;;-5.37;77.18
77011;BME280;65945;53.148;17.956;2023-02-28T01:36:29;102720.89;;;-5.37;77.03
77011;BME280;65945;53.148;17.956;2023-02-28T01:38:56;102722.40;;;-5.38;77.01
77011;BME280;65945;53.148;17.956;2023-02-28T01:41:26;102722.09;;;-5.38;76.91
77011;BME280;65945;53.148;17.956;2023-02-28T01:44:06;102721.52;;;-5.39;76.92
77011;BME280;65945;53.148;17.956;2023-02-28T01:46:35;102721.04;;;-5.40;76.89
77011;BME280;65945;53.148;17.956;2023-02-28T01:49:12;102721.68;;;-5.41;76.76
77011;BME280;65945;53.148;17.956;2023-02-28T01:51:46;102718.19;;;-5.42;76.68
77011;BME280;65945;53.148;17.956;2023-02-28T01:54:22;102714.85;;;-5.44;76.53
77011;BME280;65945;53.148;17.956;2023-02-28T01:56:59;102710.70;;;-5.47;76.62
77011;BME280;65945;53.148;17.956;2023-02-28T01:59:33;102714.30;;;-5.49;76.66
77011;BME280;65945;53.148;17.956;2023-02-28T02:02:02;102714.41;;;-5.50;76.74
77011;BME280;65945;53.148;17.956;2023-02-28T02:04:41;102716.16;;;-5.53;76.80
77011;BME280;65945;53.148;17.956;2023-02-28T02:07:12;102711.91;;;-5.60;76.75
77011;BME280;65945;53.148;17.956;2023-02-28T02:09:39;102712.80;;;-5.61;76.87
77011;BME280;65945;53.148;17.956;2023-02-28T02:12:18;102709.54;;;-5.63;76.91
77011;BME280;65945;53.148;17.956;2023-02-28T02:15:17;102708.41;;;-5.65;76.85
77011;BME280;65945;53.148;17.956;2023-02-28T02:17:50;102708.32;;;-5.67;76.90
77011;BME280;65945;53.148;17.956;2023-02-28T02:20:32;102713.16;;;-5.69;77.02
77011;BME280;65945;53.148;17.956;2023-02-28T02:25:47;102716.92;;;-5.71;76.74
77011;BME280;65945;53.148;17.956;2023-02-28T02:30:53;102719.59;;;-5.73;76.62
77011;BME280;65945;53.148;17.956;2023-02-28T02:36:39;102721.13;;;-5.79;77.01
77011;BME280;65945;53.148;17.956;2023-02-28T02:39:16;102728.91;;;-5.77;76.92
77011;BME280;65945;53.148;17.956;2023-02-28T02:44:34;102726.38;;;-5.78;76.89
77011;BME280;65945;53.148;17.956;2023-02-28T02:47:14;102722.77;;;-5.79;76.93
77011;BME280;65945;53.148;17.956;2023-02-28T02:49:46;102723.64;;;-5.83;76.91
77011;BME280;65945;53.148;17.956;2023-02-28T02:52:18;102724.48;;;-5.86;76.76
77011;BME280;65945;53.148;17.956;2023-02-28T02:54:50;102726.95;;;-5.89;76.73
77011;BME280;65945;53.148;17.956;2023-02-28T02:57:24;102729.02;;;-5.91;76.71
77011;BME280;65945;53.148;17.956;2023-02-28T02:59:55;102727.16;;;-5.92;76.76
77011;BME280;65945;53.148;17.956;2023-02-28T03:02:23;102722.48;;;-5.90;76.84
77011;BME280;65945;53.148;17.956;2023-02-28T03:04:56;102725.42;;;-5.90;76.93
77011;BME280;65945;53.148;17.956;2023-02-28T03:07:27;102726.14;;;-5.90;76.86
77011;BME280;65945;53.148;17.956;2023-02-28T03:09:56;102723.92;;;-5.91;76.67
77011;BME280;65945;53.148;17.956;2023-02-28T03:12:32;102722.11;;;-5.92;76.69
77011;BME280;65945;53.148;17.956;2023-02-28T03:15:13;102727.16;;;-5.92;76.50
77011;BME280;65945;53.148;17.956;2023-02-28T03:18:05;102728.60;;;-5.93;76.53
77011;BME280;65945;53.148;17.956;2023-02-28T03:23:47;102726.80;;;-6.00;76.88
77011;BME280;65945;53.148;17.956;2023-02-28T03:26:22;102730.71;;;-6.00;76.92
77011;BME280;65945;53.148;17.956;2023-02-28T03:29:05;102731.65;;;-6.01;76.84
77011;BME280;65945;53.148;17.956;2023-02-28T03:31:39;102736.50;;;-5.99;76.88
77011;BME280;65945;53.148;17.956;2023-02-28T03:34:11;102733.73;;;-6.00;76.87
77011;BME280;65945;53.148;17.956;2023-02-28T03:36:44;102734.05;;;-5.99;76.66
77011;BME280;65945;53.148;17.956;2023-02-28T03:39:16;102732.95;;;-6.02;76.63
77011;BME280;65945;53.148;17.956;2023-02-28T03:41:49;102739.35;;;-6.03;76.71
77011;BME280;65945;53.148;17.956;2023-02-28T03:44:24;102742.98;;;-6.05;76.87
77011;BME280;65945;53.148;17.956;2023-02-28T03:47:02;102738.88;;;-6.07;76.98
77011;BME280;65945;53.148;17.956;2023-02-28T03:49:35;102745.64;;;-6.09;76.97
77011;BME280;65945;53.148;17.956;2023-02-28T03:52:06;102747.52;;;-6.10;77.28
77011;BME280;65945;53.148;17.956;2023-02-28T03:54:43;102746.92;;;-6.11;77.03
77011;BME280;65945;53.148;17.956;2023-02-28T04:00:30;102748.77;;;-6.21;77.58
77011;BME280;65945;53.148;17.956;2023-02-28T04:02:58;102749.36;;;-6.26;77.61
77011;BME280;65945;53.148;17.956;2023-02-28T04:05:25;102755.23;;;-6.28;77.62
77011;BME280;65945;53.148;17.956;2023-02-28T04:07:52;102756.39;;;-6.28;77.94
77011;BME280;65945;53.148;17.956;2023-02-28T04:10:20;102755.36;;;-6.25;77.92
77011;BME280;65945;53.148;17.956;2023-02-28T04:12:47;102749.30;;;-6.23;78.14
77011;BME280;65945;53.148;17.956;2023-02-28T04:15:13;102748.05;;;-6.19;78.02
77011;BME280;65945;53.148;17.956;2023-02-28T04:17:40;102749.31;;;-6.16;78.05
77011;BME280;65945;53.148;17.956;2023-02-28T04:20:07;102751.06;;;-6.13;77.77
77011;BME280;65945;53.148;17.956;2023-02-28T04:22:36;102747.48;;;-6.11;77.81
77011;BME280;65945;53.148;17.956;2023-02-28T04:25:04;102749.55;;;-6.08;77.63
77011;BME280;65945;53.148;17.956;2023-02-28T04:27:32;102750.39;;;-6.05;77.45
77011;BME280;65945;53.148;17.956;2023-02-28T04:29:58;102747.50;;;-6.03;77.45
77011;BME280;65945;53.148;17.956;2023-02-28T04:32:25;102748.44;;;-5.99;77.44
77011;BME280;65945;53.148;17.956;2023-02-28T04:34:52;102751.81;;;-5.98;77.18
77011;BME280;65945;53.148;17.956;2023-02-28T04:37:18;102750.30;;;-6.02;77.05
77011;BME280;65945;53.148;17.956;2023-02-28T04:39:45;102753.85;;;-6.04;77.06
77011;BME280;65945;53.148;17.956;2023-02-28T04:42:12;102759.30;;;-6.04;77.02
77011;BME280;65945;53.148;17.956;2023-02-28T04:44:39;102762.90;;;-6.11;77.20
77011;BME280;65945;53.148;17.956;2023-02-28T04:47:06;102759.01;;;-6.17;77.33
77011;BME280;65945;53.148;17.956;2023-02-28T04:49:32;102764.92;;;-6.18;77.17
77011;BME280;65945;53.148;17.956;2023-02-28T04:51:59;102764.81;;;-6.18;77.28
77011;BME280;65945;53.148;17.956;2023-02-28T04:54:26;102762.05;;;-6.16;77.28
77011;BME280;65945;53.148;17.956;2023-02-28T04:56:52;102760.38;;;-6.17;77.28
77011;BME280;65945;53.148;17.956;2023-02-28T04:59:19;102764.02;;;-6.15;77.06
77011;BME280;65945;53.148;17.956;2023-02-28T05:01:48;102765.52;;;-6.15;77.31
77011;BME280;65945;53.148;17.956;2023-02-28T05:04:15;102766.90;;;-6.16;77.05
77011;BME280;65945;53.148;17.956;2023-02-28T05:06:42;102767.02;;;-6.23;76.98
77011;BME280;65945;53.148;17.956;2023-02-28T05:09:09;102767.91;;;-6.30;76.82
77011;BME280;65945;53.148;17.956;2023-02-28T05:11:38;102772.29;;;-6.33;77.06
77011;BME280;65945;53.148;17.956;2023-02-28T05:14:09;102772.63;;;-6.35;77.21
77011;BME280;65945;53.148;17.956;2023-02-28T05:16:37;102770.09;;;-6.36;77.10
77011;BME280;65945;53.148;17.956;2023-02-28T05:19:03;102769.27;;;-6.38;77.10
77011;BME280;65945;53.148;17.956;2023-02-28T05:21:34;102769.55;;;-6.39;77.06
77011;BME280;65945;53.148;17.956;2023-02-28T05:24:03;102769.54;;;-6.40;77.12
77011;BME280;65945;53.148;17.956;2023-02-28T05:26:31;102768.33;;;-6.42;77.33
77011;BME280;65945;53.148;17.956;2023-02-28T05:29:00;102769.29;;;-6.41;77.30
77011;BME280;65945;53.148;17.956;2023-02-28T05:31:27;102769.31;;;-6.38;77.15
77011;BME280;65945;53.148;17.956;2023-02-28T05:33:53;102769.60;;;-6.39;77.26
77011;BME280;65945;53.148;17.956;2023-02-28T05:36:20;102767.86;;;-6.40;77.03
77011;BME280;65945;53.148;17.956;2023-02-28T05:38:48;102768.52;;;-6.42;77.15
77011;BME280;65945;53.148;17.956;2023-02-28T05:41:16;102773.19;;;-6.40;77.14
77011;BME280;65945;53.148;17.956;2023-02-28T05:43:43;102773.71;;;-6.39;77.12
77011;BME280;65945;53.148;17.956;2023-02-28T05:46:10;102774.36;;;-6.39;76.98
77011;BME280;65945;53.148;17.956;2023-02-28T05:48:39;102781.98;;;-6.38;76.98
77011;BME280;65945;53.148;17.956;2023-02-28T05:51:07;102781.91;;;-6.36;77.15
77011;BME280;65945;53.148;17.956;2023-02-28T05:53:34;102778.16;;;-6.36;77.02
77011;BME280;65945;53.148;17.956;2023-02-28T05:56:01;102777.80;;;-6.34;76.77
77011;BME280;65945;53.148;17.956;2023-02-28T05:58:28;102777.36;;;-6.35;76.97
77011;BME280;65945;53.148;17.956;2023-02-28T06:00:58;102781.33;;;-6.34;76.75
77011;BME280;65945;53.148;17.956;2023-02-28T06:03:26;102779.69;;;-6.34;76.82
77011;BME280;65945;53.148;17.956;2023-02-28T06:05:53;102784.69;;;-6.34;76.79
77011;BME280;65945;53.148;17.956;2023-02-28T06:08:20;102785.20;;;-6.31;76.69
77011;BME280;65945;53.148;17.956;2023-02-28T06:10:46;102788.45;;;-6.26;76.76
77011;BME280;65945;53.148;17.956;2023-02-28T06:13:13;102787.48;;;-6.24;76.72
77011;BME280;65945;53.148;17.956;2023-02-28T06:15:40;102789.38;;;-6.21;76.80
77011;BME280;65945;53.148;17.956;2023-02-28T06:18:07;102792.30;;;-6.16;76.72
77011;BME280;65945;53.148;17.956;2023-02-28T06:20:34;102793.20;;;-6.13;76.83
77011;BME280;65945;53.148;17.956;2023-02-28T06:23:02;102793.40;;;-6.09;76.92
77011;BME280;65945;53.148;17.956;2023-02-28T06:25:29;102796.08;;;-6.05;76.91
77011;BME280;65945;53.148;17.956;2023-02-28T06:27:55;102797.49;;;-6.00;77.03
77011;BME280;65945;53.148;17.956;2023-02-28T06:30:22;102801.38;;;-5.95;77.14
77011;BME280;65945;53.148;17.956;2023-02-28T06:32:52;102800.73;;;-5.90;77.23
77011;BME280;65945;53.148;17.956;2023-02-28T06:35:19;102807.08;;;-5.83;77.17
77011;BME280;65945;53.148;17.956;2023-02-28T06:37:46;102804.33;;;-5.77;77.23
77011;BME280;65945;53.148;17.956;2023-02-28T06:40:13;102807.79;;;-5.70;77.45
77011;BME280;65945;53.148;17.956;2023-02-28T06:42:41;102807.53;;;-5.60;77.23
77011;BME280;65945;53.148;17.956;2023-02-28T06:45:09;102813.02;;;-5.52;77.21
77011;BME280;65945;53.148;17.956;2023-02-28T06:47:37;102814.50;;;-5.42;77.60
77011;BME280;65945;53.148;17.956;2023-02-28T06:50:05;102814.08;;;-5.32;77.39
77011;BME280;65945;53.148;17.956;2023-02-28T06:52:32;102816.27;;;-5.26;77.33
77011;BME280;65945;53.148;17.956;2023-02-28T06:54:59;102816.99;;;-5.19;77.44
77011;BME280;65945;53.148;17.956;2023-02-28T06:57:29;102822.06;;;-5.10;77.49
77011;BME280;65945;53.148;17.956;2023-02-28T07:00:00;102828.24;;;-5.01;77.71
77011;BME280;65945;53.148;17.956;2023-02-28T07:02:29;102826.52;;;-4.92;77.69
77011;BME280;65945;53.148;17.956;2023-02-28T07:04:56;102830.09;;;-4.82;77.75
77011;BME280;65945;53.148;17.956;2023-02-28T07:07:22;102828.95;;;-4.71;78.26
77011;BME280;65945;53.148;17.956;2023-02-28T07:09:49;102830.36;;;-4.60;78.34
77011;BME280;65945;53.148;17.956;2023-02-28T07:12:15;102831.98;;;-4.48;78.10
77011;BME280;65945;53.148;17.956;2023-02-28T07:14:42;102835.39;;;-4.36;77.95
77011;BME280;65945;53.148;17.956;2023-02-28T07:17:10;102833.65;;;-4.21;77.74
77011;BME280;65945;53.148;17.956;2023-02-28T07:19:39;102837.65;;;-4.07;78.04
77011;BME280;65945;53.148;17.956;2023-02-28T07:22:06;102832.95;;;-3.91;77.67
77011;BME280;65945;53.148;17.956;2023-02-28T07:24:33;102832.63;;;-3.74;77.75
77011;BME280;65945;53.148;17.956;2023-02-28T07:27:00;102828.98;;;-3.58;77.48
77011;BME280;65945;53.148;17.956;2023-02-28T07:29:28;102828.80;;;-3.45;77.23
77011;BME280;65945;53.148;17.956;2023-02-28T07:31:55;102829.18;;;-3.32;77.26
77011;BME280;65945;53.148;17.956;2023-02-28T07:34:22;102828.95;;;-3.17;76.99
77011;BME280;65945;53.148;17.956;2023-02-28T07:36:49;102829.73;;;-3.03;76.89
77011;BME280;65945;53.148;17.956;2023-02-28T07:39:20;102826.09;;;-2.89;76.80
77011;BME280;65945;53.148;17.956;2023-02-28T07:41:47;102824.67;;;-2.76;76.80
77011;BME280;65945;53.148;17.956;2023-02-28T07:44:14;102821.67;;;-2.63;76.73
77011;BME280;65945;53.148;17.956;2023-02-28T07:46:41;102820.80;;;-2.51;76.66
77011;BME280;65945;53.148;17.956;2023-02-28T07:49:07;102815.61;;;-2.41;76.42
77011;BME280;65945;53.148;17.956;2023-02-28T07:51:34;102814.66;;;-2.32;76.30
77011;BME280;65945;53.148;17.956;2023-02-28T07:54:01;102820.45;;;-2.24;76.47
77011;BME280;65945;53.148;17.956;2023-02-28T07:56:27;102819.14;;;-2.14;76.44
77011;BME280;65945;53.148;17.956;2023-02-28T07:58:54;102819.90;;;-2.02;76.39
77011;BME280;65945;53.148;17.956;2023-02-28T08:01:20;102825.41;;;-1.89;76.39
77011;BME280;65945;53.148;17.956;2023-02-28T08:03:48;102825.55;;;-1.78;76.30
77011;BME280;65945;53.148;17.956;2023-02-28T08:06:17;102827.77;;;-1.66;76.37
77011;BME280;65945;53.148;17.956;2023-02-28T08:08:44;102834.02;;;-1.54;76.14
77011;BME280;65945;53.148;17.956;2023-02-28T08:11:11;102834.05;;;-1.42;75.94
77011;BME280;65945;53.148;17.956;2023-02-28T08:13:37;102839.11;;;-1.31;75.79
77011;BME280;65945;53.148;17.956;2023-02-28T08:16:04;102839.97;;;-1.20;75.65
77011;BME280;65945;53.148;17.956;2023-02-28T08:18:32;102839.06;;;-1.08;75.64
77011;BME280;65945;53.148;17.956;2023-02-28T08:20:59;102837.20;;;-0.95;75.42
77011;BME280;65945;53.148;17.956;2023-02-28T08:23:25;102834.78;;;-0.82;75.33
77011;BME280;65945;53.148;17.956;2023-02-28T08:25:53;102833.86;;;-0.72;74.94
77011;BME280;65945;53.148;17.956;2023-02-28T08:28:21;102832.88;;;-0.60;75.07
77011;BME280;65945;53.148;17.956;2023-02-28T08:30:48;102829.16;;;-0.45;74.78
77011;BME280;65945;53.148;17.956;2023-02-28T08:33:15;102824.05;;;-0.31;74.50
77011;BME280;65945;53.148;17.956;2023-02-28T08:35:41;102821.77;;;-0.18;74.17
77011;BME280;65945;53.148;17.956;2023-02-28T08:38:08;102823.55;;;-0.05;73.98
77011;BME280;65945;53.148;17.956;2023-02-28T08:40:35;102824.90;;;0.06;73.34
77011;BME280;65945;53.148;17.956;2023-02-28T08:43:01;102825.27;;;0.16;73.07
77011;BME280;65945;53.148;17.956;2023-02-28T08:45:28;102822.11;;;0.25;72.78
77011;BME280;65945;53.148;17.956;2023-02-28T08:47:55;102815.36;;;0.36;72.64
77011;BME280;65945;53.148;17.956;2023-02-28T08:50:22;102816.09;;;0.45;72.28
77011;BME280;65945;53.148;17.956;2023-02-28T08:52:49;102808.63;;;0.55;71.95
77011;BME280;65945;53.148;17.956;2023-02-28T08:55:15;102807.20;;;0.68;72.14
77011;BME280;65945;53.148;17.956;2023-02-28T08:57:42;102804.05;;;0.80;71.73
77011;BME280;65945;53.148;17.956;2023-02-28T09:00:09;102806.67;;;0.88;69.55
77011;BME280;65945;53.148;17.956;2023-02-28T09:02:40;102804.04;;;0.95;70.41
77011;BME280;65945;53.148;17.956;2023-02-28T09:05:09;102804.63;;;1.07;70.74
77011;BME280;65945;53.148;17.956;2023-02-28T09:07:35;102808.79;;;1.18;70.59
77011;BME280;65945;53.148;17.956;2023-02-28T09:10:02;102807.52;;;1.31;70.49
77011;BME280;65945;53.148;17.956;2023-02-28T09:12:33;102812.61;;;1.42;69.77
77011;BME280;65945;53.148;17.956;2023-02-28T09:15:01;102815.74;;;1.51;68.84
77011;BME280;65945;53.148;17.956;2023-02-28T09:17:28;102813.58;;;1.57;67.23
77011;BME280;65945;53.148;17.956;2023-02-28T09:19:55;102809.20;;;1.60;66.20
77011;BME280;65945;53.148;17.956;2023-02-28T09:22:21;102804.98;;;1.63;65.12
77011;BME280;65945;53.148;17.956;2023-02-28T09:24:48;102806.99;;;1.69;65.43
77011;BME280;65945;53.148;17.956;2023-02-28T09:27:14;102806.05;;;1.73;64.29
77011;BME280;65945;53.148;17.956;2023-02-28T09:29:41;102806.50;;;1.78;64.69
77011;BME280;65945;53.148;17.956;2023-02-28T09:32:08;102804.67;;;1.82;65.15
77011;BME280;65945;53.148;17.956;2023-02-28T09:34:34;102802.84;;;1.89;65.08
77011;BME280;65945;53.148;17.956;2023-02-28T09:37:03;102802.48;;;1.94;64.03
77011;BME280;65945;53.148;17.956;2023-02-28T09:39:29;102806.54;;;2.02;62.75
77011;BME280;65945;53.148;17.956;2023-02-28T09:41:56;102805.89;;;2.09;64.07
77011;BME280;65945;53.148;17.956;2023-02-28T09:47:05;102809.25;;;2.18;61.19
77011;BME280;65945;53.148;17.956;2023-02-28T09:49:39;102808.91;;;2.20;61.96
77011;BME280;65945;53.148;17.956;2023-02-28T09:52:20;102810.20;;;2.22;61.03
77011;BME280;65945;53.148;17.956;2023-02-28T09:54:48;102809.73;;;2.22;61.40
77011;BME280;65945;53.148;17.956;2023-02-28T09:57:29;102808.41;;;2.26;63.37
77011;BME280;65945;53.148;17.956;2023-02-28T10:05:20;102795.86;;;2.61;61.25
77011;BME280;65945;53.148;17.956;2023-02-28T10:08:14;102801.71;;;2.68;61.26
77011;BME280;65945;53.148;17.956;2023-02-28T10:10:53;102799.45;;;2.78;62.02
77011;BME280;65945;53.148;17.956;2023-02-28T10:13:27;102799.14;;;2.86;60.09
77011;BME280;65945;53.148;17.956;2023-02-28T10:16:08;102797.09;;;2.86;59.42
77011;BME280;65945;53.148;17.956;2023-02-28T10:18:45;102798.73;;;2.88;58.38
77011;BME280;65945;53.148;17.956;2023-02-28T10:21:19;102803.42;;;2.90;59.56
77011;BME280;65945;53.148;17.956;2023-02-28T10:23:48;102805.26;;;2.93;57.99
77011;BME280;65945;53.148;17.956;2023-02-28T10:26:16;102801.61;;;2.94;58.66
77011;BME280;65945;53.148;17.956;2023-02-28T10:28:44;102797.61;;;3.00;57.90
77011;BME280;65945;53.148;17.956;2023-02-28T10:31:19;102790.98;;;3.03;59.30
77011;BME280;65945;53.148;17.956;2023-02-28T10:33:47;102788.78;;;3.14;60.16
77011;BME280;65945;53.148;17.956;2023-02-28T10:36:16;102780.98;;;3.27;59.38
77011;BME280;65945;53.148;17.956;2023-02-28T10:38:46;102780.69;;;3.40;59.46
77011;BME280;65945;53.148;17.956;2023-02-28T10:41:18;102776.48;;;3.48;60.21
77011;BME280;65945;53.148;17.956;2023-02-28T10:44:12;102776.20;;;3.59;59.11
77011;BME280;65945;53.148;17.956;2023-02-28T10:46:41;102772.64;;;3.62;57.88
77011;BME280;65945;53.148;17.956;2023-02-28T10:49:22;102772.15;;;3.69;58.78
77011;BME280;65945;53.148;17.956;2023-02-28T10:51:56;102768.41;;;3.77;56.61
77011;BME280;65945;53.148;17.956;2023-02-28T10:54:34;102767.77;;;3.77;56.79
77011;BME280;65945;53.148;17.956;2023-02-28T10:57:16;102773.42;;;3.73;55.73
77011;BME280;65945;53.148;17.956;2023-02-28T10:59:44;102765.65;;;3.70;56.84
77011;BME280;65945;53.148;17.956;2023-02-28T11:02:35;102766.90;;;3.73;57.79
77011;BME280;65945;53.148;17.956;2023-02-28T11:05:32;102764.04;;;3.80;57.83
77011;BME280;65945;53.148;17.956;2023-02-28T11:08:12;102759.98;;;3.86;56.83
77011;BME280;65945;53.148;17.956;2023-02-28T11:10:44;102757.28;;;3.89;57.32
77011;BME280;65945;53.148;17.956;2023-02-28T11:13:20;102759.36;;;3.96;58.46
77011;BME280;65945;53.148;17.956;2023-02-28T11:15:53;102759.33;;;4.08;58.43
77011;BME280;65945;53.148;17.956;2023-02-28T11:21:02;102755.81;;;4.24;57.11
77011;BME280;65945;53.148;17.956;2023-02-28T11:23:31;102756.23;;;4.29;57.11
77011;BME280;65945;53.148;17.956;2023-02-28T11:26:01;102753.08;;;4.35;56.87
77011;BME280;65945;53.148;17.956;2023-02-28T11:33:53;102753.98;;;4.28;55.94
77011;BME280;65945;53.148;17.956;2023-02-28T11:38:53;102747.67;;;4.46;56.81
77011;BME280;65945;53.148;17.956;2023-02-28T11:41:44;102743.14;;;4.49;55.39
77011;BME280;65945;53.148;17.956;2023-02-28T11:44:28;102744.89;;;4.51;56.06
77011;BME280;65945;53.148;17.956;2023-02-28T11:47:10;102741.45;;;4.54;56.02
77011;BME280;65945;53.148;17.956;2023-02-28T11:52:36;102736.77;;;4.63;57.15
77011;BME280;65945;53.148;17.956;2023-02-28T11:55:15;102734.05;;;4.74;57.41
77011;BME280;65945;53.148;17.956;2023-02-28T12:06:02;102726.15;;;4.95;54.38
77011;BME280;65945;53.148;17.956;2023-02-28T12:08:53;102721.96;;;4.89;54.29
77011;BME280;65945;53.148;17.956;2023-02-28T12:11:57;102719.77;;;4.87;53.22
77011;BME280;65945;53.148;17.956;2023-02-28T12:20:18;102713.59;;;4.90;54.29
77011;BME280;65945;53.148;17.956;2023-02-28T12:25:50;102711.58;;;4.92;54.69
77011;BME280;65945;53.148;17.956;2023-02-28T12:28:24;102723.12;;;4.92;53.87
77011;BME280;65945;53.148;17.956;2023-02-28T12:31:08;102717.41;;;4.94;54.25
77011;BME280;65945;53.148;17.956;2023-02-28T12:33:43;102716.73;;;4.99;54.58
77011;BME280;65945;53.148;17.956;2023-02-28T12:36:15;102715.25;;;5.01;54.45
77011;BME280;65945;53.148;17.956;2023-02-28T12:38:50;102712.17;;;5.02;54.00
77011;BME280;65945;53.148;17.956;2023-02-28T12:41:42;102713.29;;;5.05;54.26
77011;BME280;65945;53.148;17.956;2023-02-28T12:44:26;102709.54;;;5.10;53.90
77011;BME280;65945;53.148;17.956;2023-02-28T12:47:00;102705.08;;;5.12;52.94
77011;BME280;65945;53.148;17.956;2023-02-28T12:49:33;102699.55;;;5.09;53.64
77011;BME280;65945;53.148;17.956;2023-02-28T12:52:02;102695.41;;;5.05;52.25
77011;BME280;65945;53.148;17.956;2023-02-28T12:54:59;102692.55;;;5.03;52.63
77011;BME280;65945;53.148;17.956;2023-02-28T12:57:38;102696.20;;;5.03;51.55
77011;BME280;65945;53.148;17.956;2023-02-28T13:00:38;102689.52;;;5.01;52.43
77011;BME280;65945;53.148;17.956;2023-02-28T13:03:24;102683.14;;;4.98;52.32
77011;BME280;65945;53.148;17.956;2023-02-28T13:06:04;102672.75;;;4.96;53.10
77011;BME280;65945;53.148;17.956;2023-02-28T13:09:13;102672.11;;;4.99;53.00
77011;BME280;65945;53.148;17.956;2023-02-28T13:11:43;102677.48;;;5.02;52.07
77011;BME280;65945;53.148;17.956;2023-02-28T13:19:35;102671.22;;;4.99;51.38
77011;BME280;65945;53.148;17.956;2023-02-28T13:22:04;102665.36;;;4.89;49.06
77011;BME280;65945;53.148;17.956;2023-02-28T13:29:37;102665.94;;;4.84;51.50
77011;BME280;65945;53.148;17.956;2023-02-28T13:37:36;102652.48;;;5.01;51.60
77011;BME280;65945;53.148;17.956;2023-02-28T13:42:47;102654.64;;;5.19;51.60
77011;BME280;65945;53.148;17.956;2023-02-28T13:45:29;102645.83;;;5.24;51.64
77011;BME280;65945;53.148;17.956;2023-02-28T13:48:18;102645.66;;;5.27;52.04
77011;BME280;65945;53.148;17.956;2023-02-28T13:50:45;102642.00;;;5.27;51.59
77011;BME280;65945;53.148;17.956;2023-02-28T14:06:56;102625.61;;;5.15;51.10
77011;BME280;65945;53.148;17.956;2023-02-28T14:09:30;102625.77;;;5.13;49.79
77011;BME280;65945;53.148;17.956;2023-02-28T14:15:04;102620.56;;;5.04;49.36
77011;BME280;65945;53.148;17.956;2023-02-28T14:17:52;102619.50;;;5.00;50.36
77011;BME280;65945;53.148;17.956;2023-02-28T14:20:22;102613.71;;;4.99;50.82
77011;BME280;65945;53.148;17.956;2023-02-28T14:25:43;102620.02;;;4.94;48.75
77011;BME280;65945;53.148;17.956;2023-02-28T14:31:11;102614.50;;;4.87;49.39
77011;BME280;65945;53.148;17.956;2023-02-28T14:36:35;102608.50;;;4.83;48.76
77011;BME280;65945;53.148;17.956;2023-02-28T14:39:17;102604.79;;;4.79;49.44
77011;BME280;65945;53.148;17.956;2023-02-28T14:41:46;102604.31;;;4.78;49.56